ADDS METAR Data INFO
IDs: Format: Raw Decoded Include TAF

Data at: 1957 UTC 15 Dec 2017

KXBP 151935Z AUTO 33005KT 10SM CLR 11/M05 A3027 RMK AO2 T01091046
KXBP 151915Z AUTO 01006KT 10SM CLR 11/M04 A3029 RMK AO2 T01081045
KXBP 151855Z AUTO 34006KT 10SM CLR 10/M04 A3030 RMK AO2 T01031044
KXBP 151835Z AUTO 35003KT 10SM CLR 10/M04 A3031 RMK AO2 T01021038
KXBP 151815Z AUTO 00000KT 10SM CLR 10/M03 A3033 RMK AO2 T01011033
KXBP 151755Z AUTO 36004KT 10SM CLR 10/M03 A3034 RMK AO2 T01001029 10100 20005
KXBP 151735Z AUTO 34006KT 10SM CLR 09/M03 A3035 RMK AO2 T00941026
KXBP 151715Z AUTO 31006KT 10SM CLR 09/M02 A3035 RMK AO2 T00881018
KXBP 151655Z AUTO 33006KT 10SM CLR 08/M01 A3035 RMK AO2 T00781014
KXBP 151635Z AUTO 35003KT 10SM CLR 07/M01 A3036 RMK AO2 T00691012
KXBP 151615Z AUTO 35006KT 10SM CLR 06/M01 A3037 RMK AO2 T00641009
KXBP 151555Z AUTO 34005KT 10SM CLR 05/M01 A3038 RMK AO2 T00521012
KXBP 151535Z AUTO 33004KT 10SM CLR 05/M01 A3037 RMK AO2 T00471013
KXBP 151515Z AUTO 31006KT 10SM CLR 04/M01 A3035 RMK AO2 T00431012
KXBP 151455Z AUTO 33005KT 10SM CLR 04/M01 A3035 RMK AO2 T00401009
KXBP 151435Z AUTO 30004KT 10SM CLR 03/M01 A3036 RMK AO2 T00301010
KXBP 151415Z AUTO 24005KT 10SM CLR 02/M01 A3035 RMK AO2 T00151015
KXBP 151355Z AUTO 23003KT 10SM CLR 01/M02 A3034 RMK AO2 T00061020
KXBP 151335Z AUTO 26003KT 10SM CLR 02/M01 A3033 RMK AO2 T00181013
KXBP 151315Z AUTO 31003KT 10SM CLR 02/M01 A3033 RMK AO2 T00231011
KXBP 151255Z AUTO 30004KT 10SM CLR 02/M01 A3033 RMK AO2 T00231010
KXBP 151235Z AUTO 32005KT 10SM CLR 03/M01 A3033 RMK AO2 T00251011
KXBP 151215Z AUTO 32007KT 10SM CLR 03/M01 A3032 RMK AO2 T00301010
KXBP 151155Z AUTO 31007KT 10SM CLR 03/M01 A3031 RMK AO2 T00311007 10036 21005
KXBP 151135Z AUTO 32005KT 10SM CLR 03/00 A3030 RMK AO2 T00311005
KXBP 151115Z AUTO 33004KT 10SM CLR 03/M01 A3030 RMK AO2 T00271007
KXBP 151055Z AUTO 31004KT 10SM CLR 03/M01 A3029 RMK AO2 T00281009
KXBP 151035Z AUTO 31004KT 10SM CLR 03/M01 A3029 RMK AO2 T00321011
KXBP 151015Z AUTO 31008KT 10SM CLR 04/M01 A3029 RMK AO2 T00361013
KXBP 150955Z AUTO 29007KT 10SM CLR 03/M02 A3028 RMK AO2 T00341016
KXBP 150935Z AUTO 29005KT 10SM CLR 02/M02 A3027 RMK AO2 T00241017
KXBP 150915Z AUTO 31006KT 10SM CLR 00/M04 A3027 RMK AO2 T10031037
KXBP 150855Z AUTO 27005KT 10SM CLR 00/M03 A3027 RMK AO2 T00031033
KXBP 150835Z AUTO 27005KT 10SM CLR 01/M03 A3025 RMK AO2 T00061032
KXBP 150815Z AUTO 26005KT 10SM CLR 00/M04 A3026 RMK AO2 T00041038
KXBP 150755Z AUTO 24005KT 10SM CLR 01/M04 A3026 RMK AO2 T00071036
KXBP 150735Z AUTO 24004KT 10SM CLR 01/M03 A3026 RMK AO2 T00131035
KXBP 150715Z AUTO 25005KT 10SM CLR 02/M03 A3026 RMK AO2 T00161035
KXBP 150655Z AUTO 24003KT 10SM CLR 01/M04 A3025 RMK AO2 T00141037
KXBP 150635Z AUTO 22004KT 10SM CLR 01/M03 A3026 RMK AO2 T00141035
KXBP 150615Z AUTO 22003KT 10SM CLR 01/M04 A3027 RMK AO2 T00141037
KXBP 150555Z AUTO 00000KT 10SM CLR 01/M04 A3026 RMK AO2 T00131036 10101 20000 401561009
KXBP 150535Z AUTO 23003KT 10SM CLR 02/M03 A3027 RMK AO2 T00161035
KXBP 150515Z AUTO 23004KT 10SM CLR 01/M04 A3027 RMK AO2 T00071038
KXBP 150455Z AUTO 23003KT 10SM CLR 00/M04 A3026 RMK AO2 T00001040
KXBP 150435Z AUTO 00000KT 10SM CLR 00/M04 A3026 RMK AO2 T00001043
KXBP 150415Z AUTO 00000KT 10SM CLR 00/M04 A3025 RMK AO2 T00011041
KXBP 150355Z AUTO 00000KT 10SM CLR 02/M04 A3025 RMK AO2 T00171043
KXBP 150335Z AUTO 00000KT 10SM CLR 05/M04 A3024 RMK AO2 T00531037
KXBP 150315Z AUTO 01003KT 10SM CLR 06/M03 A3023 RMK AO2 T00551035
KXBP 150255Z AUTO 02004KT 10SM CLR 06/M03 A3022 RMK AO2 T00601035
KXBP 150235Z AUTO 36005KT 10SM CLR 07/M04 A3022 RMK AO2 T00691036
KXBP 150215Z AUTO 36005KT 10SM CLR 08/M03 A3022 RMK AO2 T00751035
KXBP 150155Z AUTO 36005KT 10SM CLR 08/M04 A3021 RMK AO2 T00771036
KXBP 150135Z AUTO 36006KT 10SM CLR 08/M04 A3020 RMK AO2 T00821036
KXBP 150115Z AUTO 36006KT 10SM CLR 09/M04 A3019 RMK AO2 T00871037
KXBP 150055Z AUTO 36007KT 10SM CLR 09/M04 A3018 RMK AO2 T00921037
KXBP 150035Z AUTO 36008KT 10SM CLR 10/M03 A3017 RMK AO2 T00971035
KXBP 150015Z AUTO 36008KT 10SM CLR 10/M03 A3015 RMK AO2 T00971030
KXBP 142355Z AUTO 36008KT 10SM CLR 10/M03 A3015 RMK AO2 T01011030 10156 20101
KXBP 142335Z AUTO 01012G17KT 10SM CLR 11/M03 A3014 RMK AO2 T01081030
KXBP 142315Z AUTO 01010G16KT 10SM CLR 12/M03 A3013 RMK AO2 T01151030
KXBP 142255Z AUTO 01009G16KT 10SM CLR 12/M03 A3013 RMK AO2 T01211028
KXBP 142235Z AUTO 01010G15KT 10SM CLR 13/M03 A3012 RMK AO2 T01271026
KXBP 142215Z AUTO 01013G17KT 10SM CLR 13/M02 A3011 RMK AO2 T01331025
KXBP 142155Z AUTO 36011G18KT 10SM CLR 14/M03 A3011 RMK AO2 T01391027
KXBP 142135Z AUTO 01010G19KT 10SM CLR 14/M03 A3010 RMK AO2 T01421031
KXBP 142115Z AUTO 36010G15KT 10SM CLR 14/M03 A3010 RMK AO2 T01441030
KXBP 142055Z AUTO 35013G19KT 10SM CLR 15/M03 A3009 RMK AO2 T01471030
KXBP 142035Z AUTO 36012KT 10SM CLR 15/M03 A3009 RMK AO2 T01511035
KXBP 142015Z AUTO 36010G15KT 10SM CLR 15/M03 A3008 RMK AO2 T01511033
KXBP 141955Z AUTO 02012G18KT 10SM CLR 15/M03 A3008 RMK AO2 T01511033
KXBP 141935Z AUTO 03012G16KT 10SM CLR 15/M03 A3008 RMK AO2 T01491032
KXBP 141915Z AUTO 03012G18KT 10SM CLR 15/M03 A3010 RMK AO2 T01461031
KXBP 141855Z AUTO 02010G14KT 10SM CLR 15/M03 A3010 RMK AO2 T01451030
KXBP 141835Z AUTO 04012G18KT 10SM CLR 14/M03 A3011 RMK AO2 T01421030
KXBP 141815Z AUTO 02009G14KT 10SM CLR 14/M03 A3012 RMK AO2 T01401031
KXBP 141755Z AUTO 02012G17KT 10SM CLR 14/M03 A3013 RMK AO2 T01391027 10140 20005
KXBP 141735Z AUTO 03012G17KT 10SM CLR 14/M03 A3013 RMK AO2 T01371027
KXBP 141715Z AUTO 02012G15KT 10SM CLR 13/M02 A3014 RMK AO2 T01311025
KXBP 141655Z AUTO 04011KT 10SM CLR 13/M03 A3014 RMK AO2 T01261026
KXBP 141635Z AUTO 03014G18KT 10SM CLR 12/M02 A3014 RMK AO2 T01211025
KXBP 141615Z AUTO 02009KT 10SM CLR 11/M02 A3013 RMK AO2 T01111023
KXBP 141555Z AUTO 03009KT 10SM CLR 10/M02 A3013 RMK AO2 T00991025
KXBP 141535Z AUTO 04006KT 10SM CLR 09/M03 A3012 RMK AO2 T00901026
KXBP 141515Z AUTO 03008KT 10SM CLR 08/M03 A3011 RMK AO2 T00831027
KXBP 141455Z AUTO 03007KT 10SM CLR 07/M03 A3010 RMK AO2 T00741027
KXBP 141435Z AUTO 02005KT 10SM CLR 07/M03 A3009 RMK AO2 T00651030
KXBP 141415Z AUTO 02005KT 10SM CLR 06/M03 A3008 RMK AO2 T00551030
KXBP 141355Z AUTO 03004KT 10SM CLR 05/M03 A3007 RMK AO2 T00471035
KXBP 141335Z AUTO 36006KT 10SM CLR 04/M04 A3006 RMK AO2 T00441036
KXBP 141315Z AUTO 00000KT 10SM CLR 05/M03 A3005 RMK AO2 T00451034
KXBP 141255Z AUTO 34003KT 10SM CLR 04/M03 A3004 RMK AO2 T00401027
KXBP 141235Z AUTO 00000KT 10SM CLR 02/M03 A3002 RMK AO2 T00211030
KXBP 141215Z AUTO 00000KT 10SM CLR 01/M03 A3001 RMK AO2 T00141027
KXBP 141155Z AUTO 30003KT 10SM CLR 00/M03 A3000 RMK AO2 T00041033 10042 21009
KXBP 141135Z AUTO 25003KT 10SM CLR 00/M04 A2999 RMK AO2 T10051042
KXBP 141115Z AUTO 25003KT 10SM CLR M01/M04 A2998 RMK AO2 T10091039
KXBP 141055Z AUTO 00000KT 10SM CLR 00/M04 A2997 RMK AO2 T00021039
KXBP 141035Z AUTO 24003KT 10SM CLR 00/M04 A2996 RMK AO2 T10021043
KXBP 141015Z AUTO 27003KT 10SM CLR 00/M04 A2997 RMK AO2 T00001042
KXBP 140955Z AUTO 00000KT 10SM CLR 00/M03 A2995 RMK AO2 T00041029
KXBP 140935Z AUTO 23003KT 10SM CLR 00/M03 A2995 RMK AO2 T00021035
KXBP 140915Z AUTO 00000KT 10SM CLR 00/M03 A2995 RMK AO2 T00021034
KXBP 140855Z AUTO 24003KT 10SM CLR 00/M03 A2994 RMK AO2 T00021035
KXBP 140835Z AUTO 00000KT 10SM CLR 01/M04 A2993 RMK AO2 T00051039
KXBP 140815Z AUTO 00000KT 10SM CLR 00/M04 A2993 RMK AO2 T00041041